Protégé : Vidéo Thomas Jesson.

Protégé : Vidéo Thomas Jesson.

Cette publication est protégée par un mot de passe. Pour la voir, veuillez saisir votre mot de passe ci-dessous :

METAR :

LFQA 031530Z AUTO 05004KT 020V080 9999 ///CB 24/13 Q1001


vue en direct sur l'aérodrome
mentions légales politique de confidentialité
Cochet Concept
cx